Airfield :
LOGIN :

Register | Disclaimer

   EN    FR    IT 

 










Legend :    VFR   Marginal VFR   IFR   Intensive IFR   Very Intensive IFR
Visi :
Ceiling :
>= 8 km
>= 3000ft
5 to 8 km
1000 to 3000 ft
1500m to 5 km
500 to 1000 ft
800 to 1500m
200 to 500 ft
< 800m
< 200 ft
Symbols :   Thunderstorms  Fog  Heavy snow  Heavy precipitations  Wind > 20 kt
SIGMETs :     Misc.  Thunderstorms  Icing  Turbulence  Mountain Waves  Volcanic Ashes






- Airport Elevation : 609 ft
- IATA code : BJZ


LEBZ - Badajoz

CURRENT METAR :
  • 221400Z 23008KT 190V290 9999 SCT037 BKN047 24/14 Q1015

EXPIRED METARs :
  • 221330Z 24006G17KT 140V300 9999 SCT033 BKN046 24/14 Q1015
  • 221300Z 22007KT 180V260 9999 BKN033 BKN042 23/14 Q1015
  • 221230Z 21007KT 170V250 9999 BKN032 22/14 Q1016
  • 221200Z 22007KT 190V250 9999 SCT027 BKN040 22/14 Q1016
  • 221130Z 24009KT 190V290 9999 BKN029 21/14 Q1016

TAF TAF LEBZ
Valid from the 22 at 09:00 until the 23 at 09:00 UTC


220800Z 2209/2309 27009KT 9999 SCT025 TX29/2214Z TN15/2305Z



MET'MAP, your aeronautical weather chart ! - Copyright ORBIFLY December 2007 - Disclaimer

ORBIFLY MET'MAP TEAM :

Programming & Development : Alexandra Zaïnal
Original concept : Baudouin d'Aumeries
Technical & hardware support : Manuel Goepfert
Assistance : Marc-Olivier Méhu

Contact : metmap@orbifly.com




SOURCES & CREDITS :

   NOAA